Kyokusho Maru — JL6605 — position and weather

sailwx.info

Track history (hours):
 
Tides and Currents Weather Stations Pressure Air Temp Water Temp Dewpoint Dewpoint Depression Visibility Wind Speed Wind Dir Waves Ship Positions

Kyokusho Maru

Last reported at 2015-Jan-29 06:18 UTC. Time now 2015-Feb-01 11:46 UTC.
Position N 34°08' E 134°56'.

Length 77 m; draft 5.4 m.

Type: Tanker. MMSI: 431501667.

Date/timePositionNaut miles runAvg speedWind from/ knotsBaromVisibWave heightAir tempDewpointWater temp
2015-Jan-29 06:18N 34°08' E 134°56'911.4
2015-Jan-29 05:33N 34°08' E 135°06'1 0.2
2015-Jan-29 00:10N 34°07' E 135°08'1 2.1
2015-Jan-28 23:33N 34°08' E 135°07'0 0.0
2015-Jan-28 22:24N 34°08' E 135°07'0 0.0
2015-Jan-28 21:30N 34°08' E 135°07'0 0.0
2015-Jan-28 20:33N 34°08' E 135°07'0 0.0
2015-Jan-28 19:27N 34°08' E 135°07'0 0.0
2015-Jan-28 18:33N 34°08' E 135°07'0 0.0
2015-Jan-28 17:33N 34°08' E 135°07'0 0.0
2015-Jan-28 16:27N 34°08' E 135°07'0 0.0
2015-Jan-28 15:33N 34°08' E 135°07'1 1.0
2015-Jan-28 14:33N 34°08' E 135°05'1511.1
2015-Jan-28 13:15N 34°08' E 134°48'29 0.6
2015-Jan-26 09:25N 34°36' E 134°56'6 7.5
2015-Jan-26 08:33N 34°36' E 135°04'9 9.1
2015-Jan-26 07:33N 34°27' E 135°03'1110.2
2015-Jan-26 06:26N 34°16' E 134°59'1111.1
2015-Jan-26 05:29N 34°07' E 135°07'0 0.0
2015-Jan-26 00:33N 34°07' E 135°07'1 0.6
2015-Jan-25 23:33N 34°08' E 135°07'0 0.0
2015-Jan-25 22:18N 34°08' E 135°07'0 0.0
2015-Jan-25 21:33N 34°08' E 135°07'0 0.0
2015-Jan-25 20:27N 34°08' E 135°07'0 0.0
2015-Jan-25 19:24N 34°08' E 135°07'0 0.0
2015-Jan-25 18:30N 34°08' E 135°07'0 0.0
2015-Jan-25 17:27N 34°08' E 135°07'0 0.0
2015-Jan-25 16:30N 34°08' E 135°07'0 0.0
2015-Jan-25 15:30N 34°08' E 135°07'0 0.0
2015-Jan-25 14:24N 34°08' E 135°07'0 0.0
2015-Jan-25 13:33N 34°08' E 135°07'0 0.0
2015-Jan-25 12:30N 34°08' E 135°07'0 0.0
2015-Jan-25 11:30N 34°08' E 135°07'0 0.0
2015-Jan-25 09:18N 34°08' E 135°07'0 0.0
2015-Jan-25 08:27N 34°08' E 135°07'0 0.0
2015-Jan-25 07:33N 34°08' E 135°07'0 0.4
2015-Jan-25 06:32N 34°08' E 135°06'1611.6
2015-Jan-25 05:11N 34°08' E 134°48'  
2015-Jan-22 05:33N 34°10' E 134°58'8 1.6
2015-Jan-22 00:17N 34°07' E 135°08'1 1.7
2015-Jan-21 23:28N 34°08' E 135°06'0 0.1
2015-Jan-21 22:43N 34°08' E 135°06'0 0.0
2015-Jan-21 22:19N 34°08' E 135°06'1 1.6
2015-Jan-21 21:33N 34°09' E 135°06'1111.2
2015-Jan-21 20:33N 34°19' E 134°59'1212.1
2015-Jan-21 19:33N 34°30' E 135°02'9 8.2
2015-Jan-21 18:24N 34°34' E 134°51'  
Track history (hours):
 
Tides and Currents Weather Stations Pressure Air Temp Water Temp Dewpoint Dewpoint Depression Visibility Wind Speed Wind Dir Waves Ship Positions

Kyokusho Maru

Last reported at 2015-Jan-29 06:18 UTC. Time now 2015-Feb-01 11:46 UTC.
Position N 34°08' E 134°56'.

Length 77 m; draft 5.4 m.

Type: Tanker. MMSI: 431501667.

Date/timePositionNaut miles runAvg speedWind from/ knotsBaromVisibWave heightAir tempDewpointWater temp
2015-Jan-29 06:18N 34°08' E 134°56'911.4
2015-Jan-29 05:33N 34°08' E 135°06'1 0.2
2015-Jan-29 00:10N 34°07' E 135°08'1 2.1
2015-Jan-28 23:33N 34°08' E 135°07'0 0.0
2015-Jan-28 22:24N 34°08' E 135°07'0 0.0
2015-Jan-28 21:30N 34°08' E 135°07'0 0.0
2015-Jan-28 20:33N 34°08' E 135°07'0 0.0
2015-Jan-28 19:27N 34°08' E 135°07'0 0.0
2015-Jan-28 18:33N 34°08' E 135°07'0 0.0
2015-Jan-28 17:33N 34°08' E 135°07'0 0.0
2015-Jan-28 16:27N 34°08' E 135°07'0 0.0
2015-Jan-28 15:33N 34°08' E 135°07'1 1.0
2015-Jan-28 14:33N 34°08' E 135°05'1511.1
2015-Jan-28 13:15N 34°08' E 134°48'29 0.6
2015-Jan-26 09:25N 34°36' E 134°56'6 7.5
2015-Jan-26 08:33N 34°36' E 135°04'9 9.1
2015-Jan-26 07:33N 34°27' E 135°03'1110.2
2015-Jan-26 06:26N 34°16' E 134°59'1111.1
2015-Jan-26 05:29N 34°07' E 135°07'0 0.0
2015-Jan-26 00:33N 34°07' E 135°07'1 0.6
2015-Jan-25 23:33N 34°08' E 135°07'0 0.0
2015-Jan-25 22:18N 34°08' E 135°07'0 0.0
2015-Jan-25 21:33N 34°08' E 135°07'0 0.0
2015-Jan-25 20:27N 34°08' E 135°07'0 0.0
2015-Jan-25 19:24N 34°08' E 135°07'0 0.0
2015-Jan-25 18:30N 34°08' E 135°07'0 0.0
2015-Jan-25 17:27N 34°08' E 135°07'0 0.0
2015-Jan-25 16:30N 34°08' E 135°07'0 0.0
2015-Jan-25 15:30N 34°08' E 135°07'0 0.0
2015-Jan-25 14:24N 34°08' E 135°07'0 0.0
2015-Jan-25 13:33N 34°08' E 135°07'0 0.0
2015-Jan-25 12:30N 34°08' E 135°07'0 0.0
2015-Jan-25 11:30N 34°08' E 135°07'0 0.0
2015-Jan-25 09:18N 34°08' E 135°07'0 0.0
2015-Jan-25 08:27N 34°08' E 135°07'0 0.0
2015-Jan-25 07:33N 34°08' E 135°07'0 0.4
2015-Jan-25 06:32N 34°08' E 135°06'1611.6
2015-Jan-25 05:11N 34°08' E 134°48'  
2015-Jan-22 05:33N 34°10' E 134°58'8 1.6
2015-Jan-22 00:17N 34°07' E 135°08'1 1.7
2015-Jan-21 23:28N 34°08' E 135°06'0 0.1
2015-Jan-21 22:43N 34°08' E 135°06'0 0.0
2015-Jan-21 22:19N 34°08' E 135°06'1 1.6
2015-Jan-21 21:33N 34°09' E 135°06'1111.2
2015-Jan-21 20:33N 34°19' E 134°59'1212.1
2015-Jan-21 19:33N 34°30' E 135°02'9 8.2
2015-Jan-21 18:24N 34°34' E 134°51'  

Dump ship's entire track history